createdAt,value
2022-08-17T00:01:52.012Z,43.60
2022-08-17T00:04:19.879Z,45.25
2022-08-17T00:06:48.649Z,47.88
2022-08-17T00:09:18.948Z,46.30
2022-08-17T00:12:34.882Z,45.47
2022-08-17T00:14:35.121Z,43.58
2022-08-17T00:17:03.722Z,44.17
2022-08-17T00:19:30.426Z,45.58
2022-08-17T00:22:33.653Z,44.00
2022-08-17T00:24:47.149Z,45.67
2022-08-17T00:27:13.689Z,46.03
2022-08-17T00:29:42.242Z,45.47
2022-08-17T00:33:13.956Z,45.58
2022-08-17T00:34:55.266Z,44.42
2022-08-17T00:37:21.811Z,46.53
2022-08-17T00:39:48.356Z,44.30
2022-08-17T00:42:15.686Z,45.08
2022-08-17T00:44:43.620Z,44.42
2022-08-17T00:47:10.174Z,44.22
2022-08-17T00:49:36.695Z,42.97
2022-08-17T00:52:11.711Z,44.47
2022-08-17T00:54:41.971Z,42.35
2022-08-17T00:57:11.156Z,44.25
2022-08-17T00:59:38.873Z,43.35
2022-08-17T01:02:08.701Z,43.05
2022-08-17T01:04:36.306Z,40.35
2022-08-17T01:07:03.406Z,42.65
2022-08-17T01:09:31.080Z,40.42
2022-08-17T01:11:57.572Z,39.08
2022-08-17T01:14:25.403Z,41.60
2022-08-17T01:16:54.160Z,39.42
2022-08-17T01:19:23.609Z,39.55
2022-08-17T01:21:51.844Z,38.97
2022-08-17T01:24:19.709Z,38.75
2022-08-17T01:26:47.193Z,37.72
2022-08-17T01:29:16.023Z,37.33
2022-08-17T01:31:46.325Z,34.88
2022-08-17T01:34:13.899Z,34.58
2022-08-17T01:36:42.341Z,32.17
2022-08-17T01:39:11.768Z,31.67
2022-08-17T01:41:40.960Z,32.20
2022-08-17T01:44:08.042Z,30.55
2022-08-17T01:46:35.555Z,28.48
2022-08-17T01:49:05.477Z,30.02
2022-08-17T01:51:32.935Z,31.02
2022-08-17T01:54:01.171Z,28.95
2022-08-17T01:56:28.663Z,28.55
2022-08-17T01:58:56.802Z,27.83
2022-08-17T02:01:24.825Z,27.02
2022-08-17T02:03:59.313Z,29.52
2022-08-17T02:06:28.952Z,29.98
2022-08-17T02:09:01.591Z,31.65
2022-08-17T02:11:30.040Z,37.53
2022-08-17T02:14:03.334Z,42.80
2022-08-17T02:16:36.917Z,44.70
2022-08-17T02:19:06.085Z,47.10
2022-08-17T02:21:32.699Z,44.20
2022-08-17T02:23:59.334Z,44.50
2022-08-17T02:26:26.257Z,44.72
2022-08-17T02:28:53.642Z,43.05
2022-08-17T02:31:21.646Z,43.42
2022-08-17T02:34:00.549Z,45.17
2022-08-17T02:36:31.127Z,43.25
2022-08-17T02:38:58.710Z,42.17
2022-08-17T02:41:25.304Z,42.70
2022-08-17T02:43:53.238Z,44.42
2022-08-17T02:46:21.099Z,43.47
2022-08-17T02:48:47.611Z,44.70
2022-08-17T02:51:14.282Z,41.63
2022-08-17T02:53:40.814Z,45.13
2022-08-17T02:56:07.308Z,45.53
2022-08-17T02:58:35.058Z,44.85
2022-08-17T03:01:03.506Z,43.78
2022-08-17T03:03:31.654Z,44.50
2022-08-17T03:05:58.198Z,43.72
2022-08-17T03:08:25.508Z,44.55
2022-08-17T03:10:52.309Z,43.35
2022-08-17T03:13:18.870Z,39.67
2022-08-17T03:15:46.201Z,39.88
2022-08-17T03:18:24.637Z,42.20
2022-08-17T03:20:54.541Z,40.67
2022-08-17T03:23:23.958Z,40.65
2022-08-17T03:25:52.948Z,40.05
2022-08-17T03:28:20.187Z,39.45
2022-08-17T03:30:46.743Z,38.85
2022-08-17T03:33:13.286Z,36.47
2022-08-17T03:35:40.517Z,35.55
2022-08-17T03:38:08.876Z,34.40
2022-08-17T03:40:58.569Z,34.13
2022-08-17T03:43:22.581Z,33.22
2022-08-17T03:46:10.095Z,33.85
2022-08-17T03:49:12.564Z,33.75
2022-08-17T03:51:57.912Z,32.45
2022-08-17T03:54:46.013Z,31.77
2022-08-17T03:57:12.626Z,32.50
2022-08-17T03:59:39.508Z,32.22
2022-08-17T04:02:09.707Z,32.92
2022-08-17T04:04:36.727Z,32.40
2022-08-17T04:07:03.387Z,31.52
2022-08-17T04:09:31.450Z,35.08
2022-08-17T04:12:01.222Z,35.17
2022-08-17T04:14:36.219Z,37.30
2022-08-17T04:17:18.920Z,37.05
2022-08-17T04:19:46.609Z,36.47
2022-08-17T04:22:31.377Z,37.65
2022-08-17T04:25:01.481Z,37.75
2022-08-17T04:27:28.036Z,38.10
2022-08-17T04:29:55.940Z,37.65
2022-08-17T04:33:00.497Z,36.55
2022-08-17T04:35:09.849Z,37.28
2022-08-17T04:37:36.336Z,37.42
2022-08-17T04:40:23.009Z,38.05
2022-08-17T04:43:00.895Z,37.25
2022-08-17T04:45:27.933Z,38.47
2022-08-17T04:47:58.994Z,38.00
2022-08-17T04:50:25.550Z,37.30
2022-08-17T04:52:52.120Z,36.35
2022-08-17T04:55:20.173Z,36.70
2022-08-17T04:57:46.687Z,34.20
2022-08-17T05:00:13.696Z,34.25
2022-08-17T05:02:49.809Z,34.40
2022-08-17T05:05:18.161Z,33.70
2022-08-17T05:07:44.671Z,31.30
2022-08-17T05:10:11.198Z,32.08
2022-08-17T05:12:39.056Z,30.90
2022-08-17T05:15:10.637Z,29.88
2022-08-17T05:17:37.182Z,28.92
2022-08-17T05:20:04.219Z,29.30
2022-08-17T05:22:31.346Z,29.13
2022-08-17T05:24:57.833Z,26.70
2022-08-17T05:27:24.488Z,27.17
2022-08-17T05:29:57.168Z,26.48
2022-08-17T05:32:39.362Z,25.90
2022-08-17T05:35:07.028Z,26.52
2022-08-17T05:37:33.599Z,26.98
2022-08-17T05:40:00.220Z,25.67
2022-08-17T05:42:26.934Z,25.58
2022-08-17T05:44:56.637Z,25.48
2022-08-17T05:47:24.966Z,26.42
2022-08-17T05:49:51.531Z,27.25
2022-08-17T05:52:25.363Z,26.98
2022-08-17T05:54:57.536Z,26.17
2022-08-17T05:57:39.608Z,26.83
2022-08-17T06:00:14.245Z,27.20
2022-08-17T06:02:50.810Z,27.08
2022-08-17T06:05:33.121Z,26.25
2022-08-17T06:08:02.583Z,27.20
2022-08-17T06:10:33.516Z,26.25
2022-08-17T06:13:05.418Z,26.02
2022-08-17T06:15:34.795Z,25.38
2022-08-17T06:18:04.586Z,26.02
2022-08-17T06:20:35.901Z,25.83
2022-08-17T06:23:04.429Z,25.55
2022-08-17T06:25:33.614Z,23.88
2022-08-17T06:28:03.148Z,20.92
2022-08-17T06:30:57.640Z,22.85
2022-08-17T06:33:20.898Z,22.70
2022-08-17T06:35:52.336Z,22.00
2022-08-17T06:38:37.675Z,21.45
2022-08-17T06:41:08.620Z,20.33
2022-08-17T06:43:47.810Z,20.55
2022-08-17T06:46:19.070Z,20.98
2022-08-17T06:48:49.202Z,19.48
2022-08-17T06:51:19.069Z,19.50
2022-08-17T06:53:48.340Z,19.75
2022-08-17T06:56:22.015Z,18.90
2022-08-17T06:58:49.573Z,19.30
2022-08-17T07:01:18.217Z,20.42
2022-08-17T07:03:47.631Z,19.23
2022-08-17T07:06:17.127Z,17.63
2022-08-17T07:08:53.115Z,18.73
2022-08-17T07:11:25.537Z,18.50
2022-08-17T07:13:57.453Z,18.27
2022-08-17T07:16:26.323Z,17.33
2022-08-17T07:18:53.653Z,17.48
2022-08-17T07:21:32.328Z,17.02
2022-08-17T07:24:03.339Z,17.10
2022-08-17T07:26:29.853Z,16.50
2022-08-17T07:28:56.733Z,16.77
2022-08-17T07:31:24.991Z,15.73
2022-08-17T07:34:06.852Z,14.90
2022-08-17T07:36:34.938Z,16.17
2022-08-17T07:39:02.098Z,14.73
2022-08-17T07:41:57.609Z,15.27
2022-08-17T07:44:16.058Z,14.57
2022-08-17T07:47:11.785Z,16.05
2022-08-17T07:49:40.105Z,14.55
2022-08-17T07:52:48.492Z,14.90
2022-08-17T07:54:56.377Z,15.77
2022-08-17T07:57:33.885Z,14.88
2022-08-17T08:00:06.085Z,15.02
2022-08-17T08:02:40.917Z,14.50
2022-08-17T08:05:12.971Z,15.10
2022-08-17T08:07:51.147Z,15.57
2022-08-17T08:10:27.676Z,14.73
2022-08-17T08:13:04.237Z,15.82
2022-08-17T08:15:34.894Z,14.73
2022-08-17T08:18:03.046Z,15.38
2022-08-17T08:20:42.455Z,14.98
2022-08-17T08:23:23.891Z,15.77
2022-08-17T08:25:53.626Z,14.63
2022-08-17T08:28:23.921Z,15.88
2022-08-17T08:30:53.609Z,14.57
2022-08-17T08:33:33.747Z,15.07
2022-08-17T08:36:05.439Z,14.55
2022-08-17T08:38:38.196Z,15.70
2022-08-17T08:41:11.742Z,14.60
2022-08-17T08:43:42.463Z,16.23
2022-08-17T08:46:15.977Z,15.32
2022-08-17T08:49:11.873Z,14.90
2022-08-17T08:51:46.559Z,14.68
2022-08-17T08:54:26.937Z,14.73
2022-08-17T08:57:22.842Z,13.73
2022-08-17T08:59:57.831Z,13.93
2022-08-17T09:02:34.882Z,14.23
2022-08-17T09:05:14.300Z,13.48
2022-08-17T09:07:45.515Z,13.32
2022-08-17T09:10:16.481Z,13.00
2022-08-17T09:12:48.674Z,13.10
2022-08-17T09:15:17.759Z,12.48
2022-08-17T09:17:47.172Z,12.38
2022-08-17T09:20:27.995Z,11.45
2022-08-17T09:22:58.171Z,11.30
2022-08-17T09:25:28.945Z,11.63
2022-08-17T09:28:00.547Z,10.82
2022-08-17T09:30:29.291Z,10.93
2022-08-17T09:32:57.887Z,10.52
2022-08-17T09:35:33.613Z,9.75
2022-08-17T09:38:06.195Z,9.50
2022-08-17T09:40:37.193Z,9.35
2022-08-17T09:43:06.417Z,9.43
2022-08-17T09:45:36.158Z,10.10
2022-08-17T09:48:05.839Z,9.27
2022-08-17T09:51:04.358Z,10.43
2022-08-17T09:53:22.878Z,9.43
2022-08-17T09:56:00.753Z,10.15
2022-08-17T09:58:30.754Z,10.48
2022-08-17T10:01:00.559Z,9.60
2022-08-17T10:03:34.369Z,9.75
2022-08-17T10:06:06.529Z,9.63
2022-08-17T10:08:36.674Z,9.13
2022-08-17T10:11:10.875Z,8.93
2022-08-17T10:13:52.770Z,9.80
2022-08-17T10:16:23.024Z,8.98
2022-08-17T10:18:54.351Z,10.70
2022-08-17T10:21:40.733Z,9.13
2022-08-17T10:24:28.765Z,10.90
2022-08-17T10:26:58.040Z,12.23
2022-08-17T10:29:28.920Z,12.88
2022-08-17T10:32:00.604Z,13.55
2022-08-17T10:34:41.244Z,14.23
2022-08-17T10:37:15.229Z,14.30
2022-08-17T10:39:52.169Z,15.20
2022-08-17T10:42:30.380Z,15.57
2022-08-17T10:45:02.332Z,15.32
2022-08-17T10:47:55.387Z,16.30
2022-08-17T10:50:42.628Z,15.80
2022-08-17T10:53:09.709Z,16.73
2022-08-17T10:55:36.302Z,16.50
2022-08-17T10:58:21.085Z,17.98
2022-08-17T11:00:57.578Z,17.98
2022-08-17T11:03:25.089Z,18.38
2022-08-17T11:05:55.726Z,18.35
2022-08-17T11:08:37.701Z,19.27
2022-08-17T11:11:14.908Z,19.60
2022-08-17T11:13:48.457Z,18.15
2022-08-17T11:16:32.931Z,19.50
2022-08-17T11:19:32.688Z,17.77
2022-08-17T11:22:16.683Z,18.38
2022-08-17T11:24:48.064Z,17.25
2022-08-17T11:27:22.462Z,17.67
2022-08-17T11:29:56.809Z,16.70
2022-08-17T11:32:29.580Z,17.50
2022-08-17T11:35:06.050Z,17.85
2022-08-17T11:37:41.725Z,17.88
2022-08-17T11:40:16.816Z,18.00
2022-08-17T11:45:32.242Z,18.17
2022-08-17T11:48:28.441Z,17.45
2022-08-17T11:51:17.550Z,17.65
2022-08-17T11:54:21.381Z,17.65
2022-08-17T11:56:47.417Z,17.05
2022-08-17T11:59:46.044Z,17.60
2022-08-17T12:02:32.743Z,17.67
2022-08-17T12:05:04.479Z,17.90
2022-08-17T12:07:41.741Z,18.13
2022-08-17T12:10:08.621Z,18.48
2022-08-17T12:12:35.962Z,19.60
2022-08-17T12:15:12.582Z,18.42
2022-08-17T12:17:42.968Z,19.88
2022-08-17T12:20:12.421Z,19.48
2022-08-17T12:22:45.164Z,18.20
2022-08-17T12:25:13.680Z,15.77
2022-08-17T12:28:05.712Z,14.65
2022-08-17T12:30:31.275Z,15.27
2022-08-17T12:32:59.211Z,16.33
2022-08-17T12:35:33.061Z,15.55
2022-08-17T12:37:59.797Z,15.18
2022-08-17T12:40:27.393Z,14.63
2022-08-17T12:42:55.053Z,15.82
2022-08-17T12:45:23.399Z,15.68
2022-08-17T12:47:59.477Z,14.77
2022-08-17T12:50:29.499Z,16.20
2022-08-17T12:53:01.712Z,15.48
2022-08-17T12:55:33.743Z,15.77
2022-08-17T12:58:01.772Z,15.75
2022-08-17T13:00:31.164Z,16.85
2022-08-17T13:02:59.228Z,16.55
2022-08-17T13:05:28.591Z,17.02
2022-08-17T13:07:55.577Z,16.75
2022-08-17T13:10:30.055Z,16.23
2022-08-17T13:13:03.750Z,16.88
2022-08-17T13:15:32.410Z,16.50
2022-08-17T13:18:04.260Z,17.13
2022-08-17T13:20:32.231Z,18.05
2022-08-17T13:22:59.746Z,18.10
2022-08-17T13:25:26.812Z,18.70
2022-08-17T13:27:54.393Z,18.08
2022-08-17T13:30:23.834Z,16.67
2022-08-17T13:32:50.546Z,18.65
2022-08-17T13:35:41.397Z,18.08
2022-08-17T13:38:12.400Z,17.30
2022-08-17T13:40:41.743Z,17.70
2022-08-17T13:43:08.912Z,18.08
2022-08-17T13:45:38.765Z,18.55
2022-08-17T13:48:11.975Z,18.45
2022-08-17T13:50:41.338Z,18.45
2022-08-17T13:53:16.939Z,18.67
2022-08-17T13:55:47.396Z,18.45
2022-08-17T13:58:19.325Z,18.13
2022-08-17T14:00:45.913Z,18.83
2022-08-17T14:03:12.541Z,17.67
2022-08-17T14:05:39.347Z,18.58
2022-08-17T14:08:06.794Z,18.65
2022-08-17T14:10:36.674Z,19.00
2022-08-17T14:13:03.717Z,19.27
2022-08-17T14:15:54.615Z,19.27
2022-08-17T14:18:31.155Z,19.77
2022-08-17T14:21:08.346Z,19.25
2022-08-17T14:23:35.144Z,20.25
2022-08-17T14:26:03.359Z,19.85
2022-08-17T14:28:29.866Z,20.10
2022-08-17T14:30:56.398Z,20.92
2022-08-17T14:33:24.699Z,21.42
2022-08-17T14:35:52.785Z,19.65
2022-08-17T14:38:19.331Z,20.48
2022-08-17T14:40:45.941Z,21.27
2022-08-17T14:43:15.703Z,21.05
2022-08-17T14:45:42.335Z,19.70
2022-08-17T14:48:09.355Z,21.58
2022-08-17T14:50:37.488Z,21.52
2022-08-17T14:53:04.603Z,21.30
2022-08-17T14:55:32.466Z,22.40
2022-08-17T14:57:59.052Z,22.38
2022-08-17T15:00:26.958Z,23.27
2022-08-17T15:02:58.329Z,23.92
2022-08-17T15:05:26.552Z,24.85
2022-08-17T15:07:53.617Z,24.02
2022-08-17T15:10:20.532Z,23.65
2022-08-17T15:12:47.016Z,23.35
2022-08-17T15:15:14.548Z,22.02
2022-08-17T15:17:43.831Z,22.65
2022-08-17T15:20:15.115Z,24.02
2022-08-17T15:22:43.961Z,24.30
2022-08-17T15:25:11.118Z,23.20
2022-08-17T15:27:37.616Z,24.40
2022-08-17T15:30:05.724Z,25.88
2022-08-17T15:32:35.153Z,25.20
2022-08-17T15:35:04.217Z,25.05
2022-08-17T15:37:32.065Z,24.88
2022-08-17T15:40:00.736Z,24.45
2022-08-17T15:42:27.834Z,25.10
2022-08-17T15:44:57.171Z,25.58
2022-08-17T15:47:24.048Z,24.33
2022-08-17T15:49:50.926Z,25.98
2022-08-17T15:52:19.696Z,26.85
2022-08-17T15:54:49.353Z,24.42
2022-08-17T15:57:16.418Z,23.67
2022-08-17T15:59:44.509Z,25.75
2022-08-17T16:03:13.739Z,24.15
2022-08-17T16:05:03.383Z,25.00
2022-08-17T16:07:31.818Z,24.10
2022-08-17T16:09:58.340Z,25.10
2022-08-17T16:12:25.309Z,24.27
2022-08-17T16:14:53.368Z,26.02
2022-08-17T16:17:39.602Z,26.25
2022-08-17T16:20:06.914Z,25.52
2022-08-17T16:22:36.076Z,23.67
2022-08-17T16:25:03.299Z,26.05
2022-08-17T16:27:29.858Z,25.30
2022-08-17T16:29:56.436Z,25.75
2022-08-17T16:32:31.893Z,25.58
2022-08-17T16:35:01.581Z,24.98
2022-08-17T16:37:29.399Z,25.77
2022-08-17T16:39:57.353Z,25.50
2022-08-17T16:42:24.794Z,26.20
2022-08-17T16:44:51.699Z,27.65
2022-08-17T16:47:19.471Z,27.45
2022-08-17T16:49:46.496Z,28.00
2022-08-17T16:52:14.281Z,27.40
2022-08-17T16:55:00.945Z,27.20
2022-08-17T16:57:27.646Z,27.35
2022-08-17T16:59:54.336Z,27.10
2022-08-17T17:02:25.456Z,27.23
2022-08-17T17:04:53.654Z,28.70
2022-08-17T17:07:25.724Z,27.77
2022-08-17T17:09:55.413Z,28.05
2022-08-17T17:13:02.807Z,28.65
2022-08-17T17:15:11.371Z,29.30
2022-08-17T17:17:38.681Z,28.33
2022-08-17T17:20:07.883Z,27.63
2022-08-17T17:22:38.165Z,27.88
2022-08-17T17:25:07.823Z,29.20
2022-08-17T17:27:41.041Z,28.73
2022-08-17T17:30:09.589Z,28.50
2022-08-17T17:32:39.192Z,28.33
2022-08-17T17:35:09.944Z,28.13
2022-08-17T17:37:37.917Z,28.10
2022-08-17T17:40:07.506Z,28.00
2022-08-17T17:42:34.123Z,27.52
2022-08-17T17:45:06.850Z,27.70
2022-08-17T17:47:33.973Z,27.05
2022-08-17T17:50:01.533Z,26.92
2022-08-17T17:52:36.282Z,26.63
2022-08-17T17:55:06.326Z,27.58
2022-08-17T17:57:45.096Z,27.10
2022-08-17T18:00:15.202Z,28.98
2022-08-17T18:02:51.603Z,26.85
2022-08-17T18:05:28.392Z,29.92
2022-08-17T18:07:59.455Z,28.02
2022-08-17T18:10:30.515Z,29.50
2022-08-17T18:13:05.376Z,28.35
2022-08-17T18:15:36.311Z,28.73
2022-08-17T18:18:17.664Z,28.25
2022-08-17T18:20:53.651Z,27.73
2022-08-17T18:23:28.082Z,28.05
2022-08-17T18:25:55.188Z,30.63
2022-08-17T18:28:25.162Z,30.83
2022-08-17T18:31:13.022Z,29.38
2022-08-17T18:33:41.087Z,30.25
2022-08-17T18:36:07.846Z,28.58
2022-08-17T18:38:35.668Z,31.25
2022-08-17T18:41:04.106Z,29.52
2022-08-17T18:43:44.008Z,31.40
2022-08-17T18:46:28.336Z,31.85
2022-08-17T18:48:59.244Z,32.22
2022-08-17T18:51:41.514Z,30.80
2022-08-17T18:54:14.377Z,30.15
2022-08-17T18:56:41.685Z,30.25
2022-08-17T18:59:10.921Z,32.92
2022-08-17T19:01:54.501Z,32.75
2022-08-17T19:04:30.484Z,31.52
2022-08-17T19:07:13.014Z,30.00
2022-08-17T19:09:43.068Z,32.85
2022-08-17T19:12:13.482Z,32.53
2022-08-17T19:14:40.158Z,33.38
2022-08-17T19:17:10.763Z,32.47
2022-08-17T19:19:40.543Z,33.28
2022-08-17T19:22:11.265Z,32.78
2022-08-17T19:24:47.477Z,33.92
2022-08-17T19:27:17.823Z,34.80
2022-08-17T19:29:48.269Z,34.72
2022-08-17T19:32:18.107Z,34.13
2022-08-17T19:34:44.805Z,36.03
2022-08-17T19:37:14.142Z,36.05
2022-08-17T19:39:42.798Z,36.53
2022-08-17T19:42:12.867Z,37.05
2022-08-17T19:44:46.449Z,36.63
2022-08-17T19:47:19.609Z,36.63
2022-08-17T19:50:02.409Z,37.58
2022-08-17T19:52:37.694Z,37.05
2022-08-17T19:55:07.961Z,38.10
2022-08-17T19:57:39.225Z,36.53
2022-08-17T20:00:11.225Z,39.40
2022-08-17T20:02:41.451Z,38.30
2022-08-17T20:05:12.812Z,38.03
2022-08-17T20:07:42.658Z,36.72
2022-08-17T20:10:12.338Z,35.22
2022-08-17T20:12:40.038Z,34.30
2022-08-17T20:15:08.407Z,34.38
2022-08-17T20:17:37.216Z,32.83
2022-08-17T20:20:07.567Z,32.78
2022-08-17T20:22:52.501Z,32.80
2022-08-17T20:25:30.275Z,31.15
2022-08-17T20:28:05.943Z,31.30
2022-08-17T20:30:34.969Z,31.60
2022-08-17T20:33:02.447Z,30.23
2022-08-17T20:35:30.415Z,30.77
2022-08-17T20:38:02.127Z,30.85
2022-08-17T20:40:30.740Z,29.73
2022-08-17T20:42:58.215Z,30.27
2022-08-17T20:45:43.053Z,31.02
2022-08-17T20:51:11.677Z,31.40
2022-08-17T20:53:55.697Z,30.45
2022-08-17T20:56:40.772Z,31.55
2022-08-17T20:59:08.818Z,31.55
2022-08-17T21:01:37.437Z,32.03
2022-08-17T21:04:06.173Z,30.52
2022-08-17T21:06:32.637Z,31.30
2022-08-17T21:09:19.164Z,31.73
2022-08-17T21:12:03.949Z,30.58
2022-08-17T21:14:36.493Z,31.90
2022-08-17T21:17:12.414Z,30.90
2022-08-17T21:20:07.629Z,32.00
2022-08-17T21:22:40.627Z,30.60
2022-08-17T21:25:13.625Z,30.45
2022-08-17T21:27:47.714Z,30.42
2022-08-17T21:30:31.890Z,31.17
2022-08-17T21:33:10.197Z,29.95
2022-08-17T21:35:47.909Z,31.80
2022-08-17T21:38:15.152Z,32.25
2022-08-17T21:40:44.295Z,32.03
2022-08-17T21:43:23.419Z,29.83
2022-08-17T21:45:55.396Z,29.02
2022-08-17T21:48:24.524Z,30.33
2022-08-17T21:50:57.775Z,31.83
2022-08-17T21:53:32.885Z,30.23
2022-08-17T21:56:00.337Z,32.63
2022-08-17T21:58:31.710Z,31.35
2022-08-17T22:01:11.869Z,31.90
2022-08-17T22:03:38.737Z,32.17
2022-08-17T22:06:18.393Z,33.17
2022-08-17T22:08:56.785Z,34.42
2022-08-17T22:11:23.265Z,34.58
2022-08-17T22:13:51.421Z,33.50
2022-08-17T22:16:29.410Z,33.45
2022-08-17T22:18:58.056Z,32.83
2022-08-17T22:21:25.219Z,32.92
2022-08-17T22:24:06.200Z,30.25
2022-08-17T22:26:51.306Z,31.15
2022-08-17T22:29:32.792Z,32.05
2022-08-17T22:32:00.664Z,31.55
2022-08-17T22:34:27.168Z,31.52
2022-08-17T22:37:08.526Z,31.77
2022-08-17T22:39:40.372Z,31.67
2022-08-17T22:42:12.599Z,29.88
2022-08-17T22:44:46.849Z,29.73
2022-08-17T22:47:29.373Z,31.15
2022-08-17T22:49:57.906Z,31.45
2022-08-17T22:52:33.071Z,29.20
2022-08-17T22:55:20.248Z,27.70
2022-08-17T22:58:05.910Z,28.27
2022-08-17T23:03:09.086Z,26.60
2022-08-17T23:05:36.278Z,27.25
2022-08-17T23:08:03.523Z,26.65
2022-08-17T23:10:30.079Z,28.15
2022-08-17T23:12:59.724Z,26.08
2022-08-17T23:15:33.182Z,26.33
2022-08-17T23:18:04.774Z,26.95
2022-08-17T23:20:33.581Z,25.98
2022-08-17T23:23:00.589Z,26.10
2022-08-17T23:25:28.233Z,27.77
2022-08-17T23:27:55.247Z,26.13
2022-08-17T23:30:24.922Z,26.55
2022-08-17T23:32:53.788Z,27.13
2022-08-17T23:35:20.773Z,26.30
2022-08-17T23:38:08.688Z,25.40
2022-08-17T23:40:35.260Z,26.67
2022-08-17T23:43:05.861Z,24.48
2022-08-17T23:45:36.382Z,24.63
2022-08-17T23:48:06.603Z,23.88
2022-08-17T23:50:33.543Z,25.60
2022-08-17T23:53:00.125Z,23.83
2022-08-17T23:55:28.715Z,24.65
2022-08-17T23:57:55.217Z,24.08
